Hundvaag 1 weather for Jan 1993
Month no. 67
Obs.
Da.
Temp. Dew Point Precip. Wind
Speed
Wind gusts Cloud cover Press. Humidity Wind dir. Sunny OPT
01.01.1993 5,1   0,0                
02.01.1993 4,1   0,0                
03.01.1993 2,4   0,0             1  
04.01.1993 -1,6   0,0                
05.01.1993 0,1   0,0                
06.01.1993 4,9   0,0                
07.01.1993 2,8   0,0                
08.01.1993 3,9   0,0                
09.01.1993 1,4   3,2                
10.01.1993 0,6   26,1             1  
11.01.1993 2,0   12,9                
12.01.1993 2,5   6,5                
13.01.1993 4,2   5,7             1  
14.01.1993 1,9   21,0                
15.01.1993 4,0   1,3                
16.01.1993 5,6   24,4                
17.01.1993 8,0   8,8                
18.01.1993 3,0   2,8                
19.01.1993 1,8   2,7             1  
20.01.1993 5,7   17,0                
21.01.1993 3,0   9,6                
22.01.1993 5,4   13,7                
23.01.1993 1,3   3,3                
24.01.1993 2,8   9,5                
25.01.1993 -0,7   0,3                
26.01.1993 -0,8   13,1                
27.01.1993 -4,2   3,6             1  
28.01.1993 -5,2   0,4             1  
29.01.1993 -3,9   0,0             1  
30.01.1993 1,1   0,0             1  
31.01.1993 3,6   6,0                
Avrg/Sum 2,1   191,9             8